sensor_id;sensor_type;location;lat;lon;timestamp;temperature;humidity
11818;DHT22;5966;52.402;5.322;2023-10-09T00:00:07;14.90;99.90
11818;DHT22;5966;52.402;5.322;2023-10-09T00:03:03;14.90;99.90
11818;DHT22;5966;52.402;5.322;2023-10-09T00:05:35;14.90;99.90
11818;DHT22;5966;52.402;5.322;2023-10-09T00:08:14;14.90;99.90
11818;DHT22;5966;52.402;5.322;2023-10-09T00:10:46;14.90;99.90
11818;DHT22;5966;52.402;5.322;2023-10-09T00:13:20;14.90;99.90
11818;DHT22;5966;52.402;5.322;2023-10-09T00:15:55;14.90;99.90
11818;DHT22;5966;52.402;5.322;2023-10-09T00:18:27;14.90;99.90
11818;DHT22;5966;52.402;5.322;2023-10-09T00:21:02;15.00;99.90
11818;DHT22;5966;52.402;5.322;2023-10-09T00:23:40;15.00;99.90
11818;DHT22;5966;52.402;5.322;2023-10-09T00:26:08;15.10;99.90
11818;DHT22;5966;52.402;5.322;2023-10-09T00:28:38;15.20;99.90
11818;DHT22;5966;52.402;5.322;2023-10-09T00:31:11;15.30;99.90
11818;DHT22;5966;52.402;5.322;2023-10-09T00:33:42;15.30;99.90
11818;DHT22;5966;52.402;5.322;2023-10-09T00:36:12;15.30;99.90
11818;DHT22;5966;52.402;5.322;2023-10-09T00:38:45;15.40;99.90
11818;DHT22;5966;52.402;5.322;2023-10-09T00:41:18;15.50;99.90
11818;DHT22;5966;52.402;5.322;2023-10-09T00:43:51;15.50;99.90
11818;DHT22;5966;52.402;5.322;2023-10-09T00:46:21;15.60;99.90
11818;DHT22;5966;52.402;5.322;2023-10-09T00:48:54;15.60;99.90
11818;DHT22;5966;52.402;5.322;2023-10-09T00:51:25;15.70;99.90
11818;DHT22;5966;52.402;5.322;2023-10-09T00:54:03;15.70;99.90
11818;DHT22;5966;52.402;5.322;2023-10-09T00:56:35;15.70;99.90
11818;DHT22;5966;52.402;5.322;2023-10-09T00:59:09;15.70;99.90
11818;DHT22;5966;52.402;5.322;2023-10-09T01:01:42;15.80;99.90
11818;DHT22;5966;52.402;5.322;2023-10-09T01:04:24;15.80;99.90
11818;DHT22;5966;52.402;5.322;2023-10-09T01:06:57;15.80;99.90
11818;DHT22;5966;52.402;5.322;2023-10-09T01:09:42;15.80;99.90
11818;DHT22;5966;52.402;5.322;2023-10-09T01:12:12;15.80;99.90
11818;DHT22;5966;52.402;5.322;2023-10-09T01:14:45;15.80;99.90
11818;DHT22;5966;52.402;5.322;2023-10-09T01:17:19;15.90;99.90
11818;DHT22;5966;52.402;5.322;2023-10-09T01:20:04;15.90;99.90
11818;DHT22;5966;52.402;5.322;2023-10-09T01:22:43;15.90;99.90
11818;DHT22;5966;52.402;5.322;2023-10-09T01:25:13;15.90;99.90
11818;DHT22;5966;52.402;5.322;2023-10-09T01:27:42;15.90;99.90
11818;DHT22;5966;52.402;5.322;2023-10-09T01:30:11;15.90;99.90
11818;DHT22;5966;52.402;5.322;2023-10-09T01:32:41;15.90;99.90
11818;DHT22;5966;52.402;5.322;2023-10-09T01:35:10;15.90;99.90
11818;DHT22;5966;52.402;5.322;2023-10-09T01:37:47;15.90;99.90
11818;DHT22;5966;52.402;5.322;2023-10-09T01:40:20;15.90;99.90
11818;DHT22;5966;52.402;5.322;2023-10-09T01:43:03;15.90;99.90
11818;DHT22;5966;52.402;5.322;2023-10-09T01:45:31;16.00;99.90
11818;DHT22;5966;52.402;5.322;2023-10-09T01:48:09;16.00;99.90
11818;DHT22;5966;52.402;5.322;2023-10-09T01:50:39;16.00;99.90
11818;DHT22;5966;52.402;5.322;2023-10-09T01:53:09;16.00;99.90
11818;DHT22;5966;52.402;5.322;2023-10-09T01:55:46;16.00;99.90
11818;DHT22;5966;52.402;5.322;2023-10-09T01:58:14;16.00;99.90
11818;DHT22;5966;52.402;5.322;2023-10-09T02:00:51;16.00;99.90
11818;DHT22;5966;52.402;5.322;2023-10-09T02:03:22;16.00;99.90
11818;DHT22;5966;52.402;5.322;2023-10-09T02:05:52;16.10;99.90
11818;DHT22;5966;52.402;5.322;2023-10-09T02:08:27;16.10;99.90
11818;DHT22;5966;52.402;5.322;2023-10-09T02:10:58;16.10;99.90
11818;DHT22;5966;52.402;5.322;2023-10-09T02:13:29;16.10;99.90
11818;DHT22;5966;52.402;5.322;2023-10-09T02:16:01;16.10;99.90
11818;DHT22;5966;52.402;5.322;2023-10-09T02:18:41;16.20;99.90
11818;DHT22;5966;52.402;5.322;2023-10-09T02:21:21;16.20;99.90
11818;DHT22;5966;52.402;5.322;2023-10-09T02:24:00;16.20;99.90
11818;DHT22;5966;52.402;5.322;2023-10-09T02:26:33;16.20;99.90
11818;DHT22;5966;52.402;5.322;2023-10-09T02:29:28;16.20;99.90
11818;DHT22;5966;52.402;5.322;2023-10-09T02:32:01;16.20;99.90
11818;DHT22;5966;52.402;5.322;2023-10-09T02:34:40;16.20;99.90
11818;DHT22;5966;52.402;5.322;2023-10-09T02:37:13;16.20;99.90
11818;DHT22;5966;52.402;5.322;2023-10-09T02:39:41;16.20;99.90
11818;DHT22;5966;52.402;5.322;2023-10-09T02:42:15;16.30;99.90
11818;DHT22;5966;52.402;5.322;2023-10-09T02:44:53;16.30;99.90
11818;DHT22;5966;52.402;5.322;2023-10-09T02:47:23;16.30;99.90
11818;DHT22;5966;52.402;5.322;2023-10-09T02:49:57;16.30;99.90
11818;DHT22;5966;52.402;5.322;2023-10-09T02:52:33;16.30;99.90
11818;DHT22;5966;52.402;5.322;2023-10-09T02:55:08;16.30;99.90
11818;DHT22;5966;52.402;5.322;2023-10-09T02:57:42;16.30;99.90
11818;DHT22;5966;52.402;5.322;2023-10-09T03:00:12;16.30;99.90
11818;DHT22;5966;52.402;5.322;2023-10-09T03:02:46;16.30;99.90
11818;DHT22;5966;52.402;5.322;2023-10-09T03:05:17;16.30;99.90
11818;DHT22;5966;52.402;5.322;2023-10-09T03:07:47;16.30;99.90
11818;DHT22;5966;52.402;5.322;2023-10-09T03:10:16;16.30;99.90
11818;DHT22;5966;52.402;5.322;2023-10-09T03:12:45;16.30;99.90
11818;DHT22;5966;52.402;5.322;2023-10-09T03:15:18;16.30;99.90
11818;DHT22;5966;52.402;5.322;2023-10-09T03:17:47;16.30;99.90
11818;DHT22;5966;52.402;5.322;2023-10-09T03:20:16;16.30;99.90
11818;DHT22;5966;52.402;5.322;2023-10-09T03:22:45;16.30;99.90
11818;DHT22;5966;52.402;5.322;2023-10-09T03:25:15;16.30;99.90
11818;DHT22;5966;52.402;5.322;2023-10-09T03:27:46;16.30;99.90
11818;DHT22;5966;52.402;5.322;2023-10-09T03:30:15;16.30;99.90
11818;DHT22;5966;52.402;5.322;2023-10-09T03:32:50;16.30;99.90
11818;DHT22;5966;52.402;5.322;2023-10-09T03:35:19;16.40;99.90
11818;DHT22;5966;52.402;5.322;2023-10-09T03:37:54;16.40;99.90
11818;DHT22;5966;52.402;5.322;2023-10-09T03:40:26;16.40;99.90
11818;DHT22;5966;52.402;5.322;2023-10-09T03:42:56;16.40;99.90
11818;DHT22;5966;52.402;5.322;2023-10-09T03:45:25;16.40;99.90
11818;DHT22;5966;52.402;5.322;2023-10-09T03:47:54;16.40;99.90
11818;DHT22;5966;52.402;5.322;2023-10-09T03:50:29;16.40;99.90
11818;DHT22;5966;52.402;5.322;2023-10-09T03:53:04;16.40;99.90
11818;DHT22;5966;52.402;5.322;2023-10-09T03:55:39;16.40;99.90
11818;DHT22;5966;52.402;5.322;2023-10-09T03:58:10;16.40;99.90
11818;DHT22;5966;52.402;5.322;2023-10-09T04:00:40;16.40;99.90
11818;DHT22;5966;52.402;5.322;2023-10-09T04:03:14;16.40;99.90
11818;DHT22;5966;52.402;5.322;2023-10-09T04:05:43;16.40;99.90
11818;DHT22;5966;52.402;5.322;2023-10-09T04:08:13;16.40;99.90
11818;DHT22;5966;52.402;5.322;2023-10-09T04:10:47;16.40;99.90
11818;DHT22;5966;52.402;5.322;2023-10-09T04:13:26;16.40;99.90
11818;DHT22;5966;52.402;5.322;2023-10-09T04:16:01;16.40;99.90
11818;DHT22;5966;52.402;5.322;2023-10-09T04:18:37;16.40;99.90
11818;DHT22;5966;52.402;5.322;2023-10-09T04:21:07;16.40;99.90
11818;DHT22;5966;52.402;5.322;2023-10-09T04:23:46;16.40;99.90
11818;DHT22;5966;52.402;5.322;2023-10-09T04:26:32;16.40;99.90
11818;DHT22;5966;52.402;5.322;2023-10-09T04:29:05;16.40;99.90
11818;DHT22;5966;52.402;5.322;2023-10-09T04:31:33;16.40;99.90
11818;DHT22;5966;52.402;5.322;2023-10-09T04:34:04;16.40;99.90
11818;DHT22;5966;52.402;5.322;2023-10-09T04:36:56;16.50;99.90
11818;DHT22;5966;52.402;5.322;2023-10-09T04:39:27;16.40;99.90
11818;DHT22;5966;52.402;5.322;2023-10-09T04:42:13;16.40;99.90
11818;DHT22;5966;52.402;5.322;2023-10-09T04:45:00;16.50;99.90
11818;DHT22;5966;52.402;5.322;2023-10-09T04:47:42;16.50;99.90
11818;DHT22;5966;52.402;5.322;2023-10-09T04:50:25;16.50;99.90
11818;DHT22;5966;52.402;5.322;2023-10-09T04:53:14;16.50;99.90
11818;DHT22;5966;52.402;5.322;2023-10-09T04:55:51;16.50;99.90
11818;DHT22;5966;52.402;5.322;2023-10-09T04:58:24;16.50;99.90
11818;DHT22;5966;52.402;5.322;2023-10-09T05:00:55;16.50;99.90
11818;DHT22;5966;52.402;5.322;2023-10-09T05:03:41;16.50;99.90
11818;DHT22;5966;52.402;5.322;2023-10-09T05:06:12;16.50;99.90
11818;DHT22;5966;52.402;5.322;2023-10-09T05:09:10;16.50;99.90
11818;DHT22;5966;52.402;5.322;2023-10-09T05:11:41;16.50;99.90
11818;DHT22;5966;52.402;5.322;2023-10-09T05:14:23;16.50;99.90
11818;DHT22;5966;52.402;5.322;2023-10-09T05:17:08;16.60;99.90
11818;DHT22;5966;52.402;5.322;2023-10-09T05:19:43;16.60;99.90
11818;DHT22;5966;52.402;5.322;2023-10-09T05:22:22;16.60;99.90
11818;DHT22;5966;52.402;5.322;2023-10-09T05:25:05;16.70;99.90
11818;DHT22;5966;52.402;5.322;2023-10-09T05:27:57;16.80;99.90
11818;DHT22;5966;52.402;5.322;2023-10-09T05:30:44;16.80;99.90
11818;DHT22;5966;52.402;5.322;2023-10-09T05:33:17;16.90;99.90
11818;DHT22;5966;52.402;5.322;2023-10-09T05:36:01;16.90;99.90
11818;DHT22;5966;52.402;5.322;2023-10-09T05:38:46;17.00;99.90
11818;DHT22;5966;52.402;5.322;2023-10-09T05:41:25;17.00;99.90
11818;DHT22;5966;52.402;5.322;2023-10-09T05:44:13;17.00;99.90
11818;DHT22;5966;52.402;5.322;2023-10-09T05:46:59;17.00;99.90
11818;DHT22;5966;52.402;5.322;2023-10-09T05:49:46;17.10;99.90
11818;DHT22;5966;52.402;5.322;2023-10-09T05:52:22;17.10;99.90
11818;DHT22;5966;52.402;5.322;2023-10-09T05:54:59;17.20;99.90
11818;DHT22;5966;52.402;5.322;2023-10-09T05:57:44;17.10;99.90
11818;DHT22;5966;52.402;5.322;2023-10-09T06:00:32;17.20;99.90
11818;DHT22;5966;52.402;5.322;2023-10-09T06:03:18;17.20;99.90
11818;DHT22;5966;52.402;5.322;2023-10-09T06:05:55;17.20;99.90
11818;DHT22;5966;52.402;5.322;2023-10-09T06:08:33;17.20;99.90
11818;DHT22;5966;52.402;5.322;2023-10-09T06:11:36;17.20;99.90
11818;DHT22;5966;52.402;5.322;2023-10-09T06:14:06;17.20;99.90
11818;DHT22;5966;52.402;5.322;2023-10-09T06:16:42;17.20;99.90
11818;DHT22;5966;52.402;5.322;2023-10-09T06:19:11;17.20;99.90
11818;DHT22;5966;52.402;5.322;2023-10-09T06:21:56;17.20;99.90
11818;DHT22;5966;52.402;5.322;2023-10-09T06:24:42;17.20;99.90
11818;DHT22;5966;52.402;5.322;2023-10-09T06:27:22;17.20;99.90
11818;DHT22;5966;52.402;5.322;2023-10-09T06:30:12;17.20;99.90
11818;DHT22;5966;52.402;5.322;2023-10-09T06:32:51;17.30;99.90
11818;DHT22;5966;52.402;5.322;2023-10-09T06:35:25;17.20;99.90
11818;DHT22;5966;52.402;5.322;2023-10-09T06:37:59;17.30;99.90
11818;DHT22;5966;52.402;5.322;2023-10-09T06:40:48;17.30;99.90
11818;DHT22;5966;52.402;5.322;2023-10-09T06:43:34;17.30;99.90
11818;DHT22;5966;52.402;5.322;2023-10-09T06:46:15;17.30;99.90
11818;DHT22;5966;52.402;5.322;2023-10-09T06:49:10;17.30;99.90
11818;DHT22;5966;52.402;5.322;2023-10-09T06:51:55;17.30;99.90
11818;DHT22;5966;52.402;5.322;2023-10-09T06:54:42;17.30;99.90
11818;DHT22;5966;52.402;5.322;2023-10-09T06:57:17;17.30;99.90
11818;DHT22;5966;52.402;5.322;2023-10-09T07:00:07;17.30;99.90
11818;DHT22;5966;52.402;5.322;2023-10-09T07:03:04;17.30;99.90
11818;DHT22;5966;52.402;5.322;2023-10-09T07:05:38;17.30;99.90
11818;DHT22;5966;52.402;5.322;2023-10-09T07:08:27;17.40;99.90
11818;DHT22;5966;52.402;5.322;2023-10-09T07:11:01;17.40;99.90
11818;DHT22;5966;52.402;5.322;2023-10-09T07:13:47;17.40;99.90
11818;DHT22;5966;52.402;5.322;2023-10-09T07:16:22;17.40;99.90
11818;DHT22;5966;52.402;5.322;2023-10-09T07:19:05;17.40;99.90
11818;DHT22;5966;52.402;5.322;2023-10-09T07:21:55;17.40;99.90
11818;DHT22;5966;52.402;5.322;2023-10-09T07:24:29;17.50;99.90
11818;DHT22;5966;52.402;5.322;2023-10-09T07:27:12;17.50;99.90
11818;DHT22;5966;52.402;5.322;2023-10-09T07:29:41;17.50;99.90
11818;DHT22;5966;52.402;5.322;2023-10-09T07:32:15;17.50;99.90
11818;DHT22;5966;52.402;5.322;2023-10-09T07:34:47;17.50;99.90
11818;DHT22;5966;52.402;5.322;2023-10-09T07:37:25;17.50;99.90
11818;DHT22;5966;52.402;5.322;2023-10-09T07:39:58;17.60;99.90
11818;DHT22;5966;52.402;5.322;2023-10-09T07:42:27;17.60;99.90
11818;DHT22;5966;52.402;5.322;2023-10-09T07:45:10;17.60;99.90
11818;DHT22;5966;52.402;5.322;2023-10-09T07:47:56;17.60;99.90
11818;DHT22;5966;52.402;5.322;2023-10-09T07:50:38;17.60;99.90
11818;DHT22;5966;52.402;5.322;2023-10-09T07:53:08;17.70;99.90
11818;DHT22;5966;52.402;5.322;2023-10-09T07:55:56;17.70;99.90
11818;DHT22;5966;52.402;5.322;2023-10-09T07:58:29;17.70;99.90
11818;DHT22;5966;52.402;5.322;2023-10-09T08:01:00;17.70;99.90
11818;DHT22;5966;52.402;5.322;2023-10-09T08:03:35;17.80;99.90
11818;DHT22;5966;52.402;5.322;2023-10-09T08:06:03;17.80;99.90
11818;DHT22;5966;52.402;5.322;2023-10-09T08:08:51;17.80;99.90
11818;DHT22;5966;52.402;5.322;2023-10-09T08:11:33;17.80;99.90
11818;DHT22;5966;52.402;5.322;2023-10-09T08:14:26;17.90;99.90
11818;DHT22;5966;52.402;5.322;2023-10-09T08:17:15;17.90;99.90
11818;DHT22;5966;52.402;5.322;2023-10-09T08:19:46;17.90;99.90
11818;DHT22;5966;52.402;5.322;2023-10-09T08:22:25;17.90;99.90
11818;DHT22;5966;52.402;5.322;2023-10-09T08:25:11;17.90;99.90
11818;DHT22;5966;52.402;5.322;2023-10-09T08:27:57;18.00;99.90
11818;DHT22;5966;52.402;5.322;2023-10-09T08:30:31;18.00;99.90
11818;DHT22;5966;52.402;5.322;2023-10-09T08:33:30;18.00;99.90
11818;DHT22;5966;52.402;5.322;2023-10-09T08:36:13;18.00;99.90
11818;DHT22;5966;52.402;5.322;2023-10-09T08:38:50;18.10;99.90
11818;DHT22;5966;52.402;5.322;2023-10-09T08:41:25;18.10;99.90
11818;DHT22;5966;52.402;5.322;2023-10-09T08:43:57;18.10;99.90
11818;DHT22;5966;52.402;5.322;2023-10-09T08:46:28;18.10;99.90
11818;DHT22;5966;52.402;5.322;2023-10-09T08:48:57;18.20;99.90
11818;DHT22;5966;52.402;5.322;2023-10-09T08:51:27;18.20;99.90
11818;DHT22;5966;52.402;5.322;2023-10-09T08:53:56;18.30;99.90
11818;DHT22;5966;52.402;5.322;2023-10-09T08:56:24;18.30;99.90
11818;DHT22;5966;52.402;5.322;2023-10-09T08:58:54;18.40;99.90
11818;DHT22;5966;52.402;5.322;2023-10-09T09:01:23;18.40;99.90
11818;DHT22;5966;52.402;5.322;2023-10-09T09:03:54;18.40;99.90
11818;DHT22;5966;52.402;5.322;2023-10-09T09:06:23;18.40;99.90
11818;DHT22;5966;52.402;5.322;2023-10-09T09:08:52;18.40;99.90
11818;DHT22;5966;52.402;5.322;2023-10-09T09:11:27;18.40;99.90
11818;DHT22;5966;52.402;5.322;2023-10-09T09:14:04;18.50;99.90
11818;DHT22;5966;52.402;5.322;2023-10-09T09:16:35;18.50;99.90
11818;DHT22;5966;52.402;5.322;2023-10-09T09:19:06;18.50;99.90
11818;DHT22;5966;52.402;5.322;2023-10-09T09:21:49;18.50;99.90
11818;DHT22;5966;52.402;5.322;2023-10-09T09:24:21;18.50;99.90
11818;DHT22;5966;52.402;5.322;2023-10-09T09:27:01;18.60;99.90
11818;DHT22;5966;52.402;5.322;2023-10-09T09:29:41;18.60;99.90
11818;DHT22;5966;52.402;5.322;2023-10-09T09:32:27;18.60;99.90
11818;DHT22;5966;52.402;5.322;2023-10-09T09:35:11;18.70;99.90
11818;DHT22;5966;52.402;5.322;2023-10-09T09:37:52;18.60;99.90
11818;DHT22;5966;52.402;5.322;2023-10-09T09:40:22;18.60;99.90
11818;DHT22;5966;52.402;5.322;2023-10-09T09:43:02;18.70;99.90
11818;DHT22;5966;52.402;5.322;2023-10-09T09:45:34;18.60;99.90
11818;DHT22;5966;52.402;5.322;2023-10-09T09:48:05;18.60;99.90
11818;DHT22;5966;52.402;5.322;2023-10-09T09:50:35;18.60;99.90
11818;DHT22;5966;52.402;5.322;2023-10-09T09:53:12;18.60;99.90
11818;DHT22;5966;52.402;5.322;2023-10-09T09:55:47;18.70;99.90
11818;DHT22;5966;52.402;5.322;2023-10-09T09:58:26;18.60;99.90
11818;DHT22;5966;52.402;5.322;2023-10-09T10:01:01;18.60;99.90
11818;DHT22;5966;52.402;5.322;2023-10-09T10:03:38;18.60;99.90
11818;DHT22;5966;52.402;5.322;2023-10-09T10:06:12;18.60;99.90
11818;DHT22;5966;52.402;5.322;2023-10-09T10:08:41;18.70;99.90
11818;DHT22;5966;52.402;5.322;2023-10-09T10:11:45;18.70;99.90
11818;DHT22;5966;52.402;5.322;2023-10-09T10:14:13;18.70;99.90
11818;DHT22;5966;52.402;5.322;2023-10-09T10:17:04;18.70;99.90
11818;DHT22;5966;52.402;5.322;2023-10-09T10:20:02;18.70;99.90
11818;DHT22;5966;52.402;5.322;2023-10-09T10:23:17;18.80;99.90
11818;DHT22;5966;52.402;5.322;2023-10-09T10:25:48;18.80;99.90
11818;DHT22;5966;52.402;5.322;2023-10-09T10:28:21;18.80;99.90
11818;DHT22;5966;52.402;5.322;2023-10-09T10:31:06;18.80;99.90
11818;DHT22;5966;52.402;5.322;2023-10-09T10:34:04;18.90;99.90
11818;DHT22;5966;52.402;5.322;2023-10-09T10:36:38;18.90;99.90
11818;DHT22;5966;52.402;5.322;2023-10-09T10:39:09;18.90;99.90
11818;DHT22;5966;52.402;5.322;2023-10-09T10:41:53;18.90;99.90
11818;DHT22;5966;52.402;5.322;2023-10-09T10:44:27;18.90;99.90
11818;DHT22;5966;52.402;5.322;2023-10-09T10:47:06;18.80;99.90
11818;DHT22;5966;52.402;5.322;2023-10-09T10:49:49;18.80;99.90
11818;DHT22;5966;52.402;5.322;2023-10-09T10:52:26;18.80;99.90
11818;DHT22;5966;52.402;5.322;2023-10-09T10:55:10;18.90;99.90
11818;DHT22;5966;52.402;5.322;2023-10-09T10:58:16;18.90;99.90
11818;DHT22;5966;52.402;5.322;2023-10-09T11:00:55;18.90;99.90
11818;DHT22;5966;52.402;5.322;2023-10-09T11:03:41;18.90;99.90
11818;DHT22;5966;52.402;5.322;2023-10-09T11:06:26;19.00;99.90
11818;DHT22;5966;52.402;5.322;2023-10-09T11:09:04;19.00;99.90
11818;DHT22;5966;52.402;5.322;2023-10-09T11:11:49;19.00;99.90
11818;DHT22;5966;52.402;5.322;2023-10-09T11:14:22;19.00;99.90
11818;DHT22;5966;52.402;5.322;2023-10-09T11:16:52;19.00;99.90
11818;DHT22;5966;52.402;5.322;2023-10-09T11:19:26;19.10;99.90
11818;DHT22;5966;52.402;5.322;2023-10-09T11:21:59;19.10;99.90
11818;DHT22;5966;52.402;5.322;2023-10-09T11:24:42;19.10;99.90
11818;DHT22;5966;52.402;5.322;2023-10-09T11:27:10;19.20;99.90
11818;DHT22;5966;52.402;5.322;2023-10-09T11:29:48;19.20;99.90
11818;DHT22;5966;52.402;5.322;2023-10-09T11:32:36;19.20;99.90
11818;DHT22;5966;52.402;5.322;2023-10-09T11:35:12;19.10;99.90
11818;DHT22;5966;52.402;5.322;2023-10-09T11:37:55;19.10;99.90
11818;DHT22;5966;52.402;5.322;2023-10-09T11:40:30;19.10;99.90
11818;DHT22;5966;52.402;5.322;2023-10-09T11:43:14;19.10;99.90
11818;DHT22;5966;52.402;5.322;2023-10-09T11:45:41;19.10;99.90
11818;DHT22;5966;52.402;5.322;2023-10-09T11:48:23;19.10;99.90
11818;DHT22;5966;52.402;5.322;2023-10-09T11:51:00;19.10;99.90
11818;DHT22;5966;52.402;5.322;2023-10-09T11:53:42;19.00;99.90
11818;DHT22;5966;52.402;5.322;2023-10-09T11:56:15;19.10;99.90
11818;DHT22;5966;52.402;5.322;2023-10-09T11:58:47;19.10;99.90
11818;DHT22;5966;52.402;5.322;2023-10-09T12:01:17;19.10;99.90
11818;DHT22;5966;52.402;5.322;2023-10-09T12:03:49;19.10;99.90
11818;DHT22;5966;52.402;5.322;2023-10-09T12:06:19;19.10;99.90
11818;DHT22;5966;52.402;5.322;2023-10-09T12:08:49;19.10;99.90
11818;DHT22;5966;52.402;5.322;2023-10-09T12:11:18;19.10;99.90
11818;DHT22;5966;52.402;5.322;2023-10-09T12:13:50;19.10;99.90
11818;DHT22;5966;52.402;5.322;2023-10-09T12:16:23;19.10;99.90
11818;DHT22;5966;52.402;5.322;2023-10-09T12:18:57;19.10;99.90
11818;DHT22;5966;52.402;5.322;2023-10-09T12:21:26;19.10;99.90
11818;DHT22;5966;52.402;5.322;2023-10-09T12:23:59;19.10;99.90
11818;DHT22;5966;52.402;5.322;2023-10-09T12:26:28;19.10;99.90
11818;DHT22;5966;52.402;5.322;2023-10-09T12:29:02;19.00;99.90
11818;DHT22;5966;52.402;5.322;2023-10-09T12:31:30;19.10;99.90
11818;DHT22;5966;52.402;5.322;2023-10-09T12:34:02;19.00;99.90
11818;DHT22;5966;52.402;5.322;2023-10-09T12:36:32;19.00;99.90
11818;DHT22;5966;52.402;5.322;2023-10-09T12:39:04;19.00;99.90
11818;DHT22;5966;52.402;5.322;2023-10-09T12:41:33;19.00;99.90
11818;DHT22;5966;52.402;5.322;2023-10-09T12:44:02;19.00;99.90
11818;DHT22;5966;52.402;5.322;2023-10-09T12:46:31;18.90;99.90
11818;DHT22;5966;52.402;5.322;2023-10-09T12:49:06;18.90;99.90
11818;DHT22;5966;52.402;5.322;2023-10-09T12:51:35;18.90;99.90
11818;DHT22;5966;52.402;5.322;2023-10-09T12:54:03;18.90;99.90
11818;DHT22;5966;52.402;5.322;2023-10-09T12:56:31;18.90;99.90
11818;DHT22;5966;52.402;5.322;2023-10-09T12:59:06;18.80;99.90
11818;DHT22;5966;52.402;5.322;2023-10-09T13:01:42;18.80;99.90
11818;DHT22;5966;52.402;5.322;2023-10-09T13:04:12;18.80;99.90
11818;DHT22;5966;52.402;5.322;2023-10-09T13:06:43;18.80;99.90
11818;DHT22;5966;52.402;5.322;2023-10-09T13:09:11;18.70;99.90
11818;DHT22;5966;52.402;5.322;2023-10-09T13:11:41;18.70;99.90
11818;DHT22;5966;52.402;5.322;2023-10-09T13:14:09;18.70;99.90
11818;DHT22;5966;52.402;5.322;2023-10-09T13:16:44;18.70;99.90
11818;DHT22;5966;52.402;5.322;2023-10-09T13:19:16;18.60;99.90
11818;DHT22;5966;52.402;5.322;2023-10-09T13:21:44;18.60;99.90
11818;DHT22;5966;52.402;5.322;2023-10-09T13:24:13;18.60;99.90
11818;DHT22;5966;52.402;5.322;2023-10-09T13:26:43;18.50;99.90
11818;DHT22;5966;52.402;5.322;2023-10-09T13:29:14;18.60;99.90
11818;DHT22;5966;52.402;5.322;2023-10-09T13:31:52;18.60;99.90
11818;DHT22;5966;52.402;5.322;2023-10-09T13:34:26;18.60;99.90
11818;DHT22;5966;52.402;5.322;2023-10-09T13:36:55;18.60;99.90
11818;DHT22;5966;52.402;5.322;2023-10-09T13:39:26;18.60;99.90
11818;DHT22;5966;52.402;5.322;2023-10-09T13:41:58;18.70;99.90
11818;DHT22;5966;52.402;5.322;2023-10-09T13:44:28;18.70;99.90
11818;DHT22;5966;52.402;5.322;2023-10-09T13:46:58;18.80;99.90
11818;DHT22;5966;52.402;5.322;2023-10-09T13:49:30;18.80;99.90
11818;DHT22;5966;52.402;5.322;2023-10-09T13:52:00;18.80;99.90
11818;DHT22;5966;52.402;5.322;2023-10-09T13:54:30;18.90;99.90
11818;DHT22;5966;52.402;5.322;2023-10-09T13:57:07;18.90;99.90
11818;DHT22;5966;52.402;5.322;2023-10-09T13:59:37;19.00;99.90
11818;DHT22;5966;52.402;5.322;2023-10-09T14:02:10;19.00;99.90
11818;DHT22;5966;52.402;5.322;2023-10-09T14:04:47;19.00;99.90
11818;DHT22;5966;52.402;5.322;2023-10-09T14:07:15;19.00;99.90
11818;DHT22;5966;52.402;5.322;2023-10-09T14:09:45;19.10;99.90
11818;DHT22;5966;52.402;5.322;2023-10-09T14:12:22;19.10;99.90
11818;DHT22;5966;52.402;5.322;2023-10-09T14:14:54;19.20;99.90
11818;DHT22;5966;52.402;5.322;2023-10-09T14:17:24;19.20;99.90
11818;DHT22;5966;52.402;5.322;2023-10-09T14:19:58;19.30;99.90
11818;DHT22;5966;52.402;5.322;2023-10-09T14:22:50;19.40;99.90
11818;DHT22;5966;52.402;5.322;2023-10-09T14:25:21;19.50;99.90
11818;DHT22;5966;52.402;5.322;2023-10-09T14:28:12;19.50;99.90
11818;DHT22;5966;52.402;5.322;2023-10-09T14:30:45;19.50;99.90
11818;DHT22;5966;52.402;5.322;2023-10-09T14:33:22;19.50;99.90
11818;DHT22;5966;52.402;5.322;2023-10-09T14:35:56;19.60;99.90
11818;DHT22;5966;52.402;5.322;2023-10-09T14:38:25;19.70;99.90
11818;DHT22;5966;52.402;5.322;2023-10-09T14:40:59;19.70;99.90
11818;DHT22;5966;52.402;5.322;2023-10-09T14:43:41;19.70;99.90
11818;DHT22;5966;52.402;5.322;2023-10-09T14:46:13;19.70;99.90
11818;DHT22;5966;52.402;5.322;2023-10-09T14:48:41;19.60;99.90
11818;DHT22;5966;52.402;5.322;2023-10-09T14:51:14;19.60;99.90
11818;DHT22;5966;52.402;5.322;2023-10-09T14:53:43;19.50;99.90
11818;DHT22;5966;52.402;5.322;2023-10-09T14:56:13;19.40;99.90
11818;DHT22;5966;52.402;5.322;2023-10-09T14:58:43;19.30;99.90
11818;DHT22;5966;52.402;5.322;2023-10-09T15:01:14;19.30;99.90
11818;DHT22;5966;52.402;5.322;2023-10-09T15:03:46;19.30;99.90
11818;DHT22;5966;52.402;5.322;2023-10-09T15:06:17;19.30;99.90
11818;DHT22;5966;52.402;5.322;2023-10-09T15:08:46;19.30;99.90
11818;DHT22;5966;52.402;5.322;2023-10-09T15:11:16;19.30;99.90
11818;DHT22;5966;52.402;5.322;2023-10-09T15:13:44;19.30;99.90
11818;DHT22;5966;52.402;5.322;2023-10-09T15:16:13;19.30;99.90
11818;DHT22;5966;52.402;5.322;2023-10-09T15:18:41;19.30;99.90
11818;DHT22;5966;52.402;5.322;2023-10-09T15:21:10;19.30;99.90
11818;DHT22;5966;52.402;5.322;2023-10-09T15:23:39;19.30;99.90
11818;DHT22;5966;52.402;5.322;2023-10-09T15:26:09;19.30;99.90
11818;DHT22;5966;52.402;5.322;2023-10-09T15:28:38;19.30;99.90
11818;DHT22;5966;52.402;5.322;2023-10-09T15:31:08;19.20;99.90
11818;DHT22;5966;52.402;5.322;2023-10-09T15:33:41;19.20;99.90
11818;DHT22;5966;52.402;5.322;2023-10-09T15:36:11;19.20;99.90
11818;DHT22;5966;52.402;5.322;2023-10-09T15:38:41;19.20;99.90
11818;DHT22;5966;52.402;5.322;2023-10-09T15:41:16;19.20;99.90
11818;DHT22;5966;52.402;5.322;2023-10-09T15:43:48;19.20;99.90
11818;DHT22;5966;52.402;5.322;2023-10-09T15:46:16;19.20;99.90
11818;DHT22;5966;52.402;5.322;2023-10-09T15:48:45;19.10;99.90
11818;DHT22;5966;52.402;5.322;2023-10-09T15:51:13;19.10;99.90
11818;DHT22;5966;52.402;5.322;2023-10-09T15:53:45;19.10;99.90
11818;DHT22;5966;52.402;5.322;2023-10-09T15:56:14;19.10;99.90
11818;DHT22;5966;52.402;5.322;2023-10-09T15:58:45;19.10;99.90
11818;DHT22;5966;52.402;5.322;2023-10-09T16:01:14;19.00;99.90
11818;DHT22;5966;52.402;5.322;2023-10-09T16:03:46;19.00;99.90
11818;DHT22;5966;52.402;5.322;2023-10-09T16:06:15;19.00;99.90
11818;DHT22;5966;52.402;5.322;2023-10-09T16:08:47;19.00;99.90
11818;DHT22;5966;52.402;5.322;2023-10-09T16:11:18;18.90;99.90
11818;DHT22;5966;52.402;5.322;2023-10-09T16:13:50;18.90;99.90
11818;DHT22;5966;52.402;5.322;2023-10-09T16:16:27;18.90;99.90
11818;DHT22;5966;52.402;5.322;2023-10-09T16:18:56;18.90;99.90
11818;DHT22;5966;52.402;5.322;2023-10-09T16:21:24;18.80;99.90
11818;DHT22;5966;52.402;5.322;2023-10-09T16:23:54;18.80;99.90
11818;DHT22;5966;52.402;5.322;2023-10-09T16:26:22;18.70;99.90
11818;DHT22;5966;52.402;5.322;2023-10-09T16:28:51;18.70;99.90
11818;DHT22;5966;52.402;5.322;2023-10-09T16:31:20;18.70;99.90
11818;DHT22;5966;52.402;5.322;2023-10-09T16:33:50;18.70;99.90
11818;DHT22;5966;52.402;5.322;2023-10-09T16:36:18;18.70;99.90